Terminal Aerodrome Forecast
Issued by NWS Tulsa, OK

Home | Current Version | Previous Version | Text Only | Print | Product List | Glossary On
Versions: 1 2 3 4 5 6 7 8 9 10 11 12 13 14 15
637
FTUS44 KTSA 260258 AAB
TAFTUL
TAF AMD
KTUL 260258Z 2603/2624 30010KT P6SM SCT017 BKN030
     FM260600 33006KT P6SM OVC007
     FM260900 34005KT 4SM BR OVC004
     FM261500 34006KT P6SM SCT250=

USA.gov is the U.S. government's official web portal to all federal, state and local government web resources and services.